Wind from 020 at 11 knots gusting 13

Air temperature 23.5° C

Last reported at 2014-Apr-16 13:54 UTC.
Time now 2014-Apr-16 16:12 UTC

Location: N 25°05' W 081°05'.
View on Google Maps.

See reports from other nearby stations

Tides Stations Pressure Air Temp Water Temp Dewpoint Dewpoint depression Visibility Wind Speed Wind Dir Waves Ship positions

  
sailing weather and tide predictions

Current Weather: station NFBF1

date/time (UTC)wind fromknots sea level pressurealtimeterstation pressurevisibilityair tempwater tempwave heightnotes
2014-Apr-16 13:54 020 11 gusting 13 23.5
2014-Apr-16 13:48 010 11 gusting 13 23.6
2014-Apr-16 12:54 040 11 gusting 13 23.1
2014-Apr-16 12:48 040 12 gusting 14 23.1
2014-Apr-16 11:54 040 11 gusting 14 23.2
2014-Apr-16 11:48 040 11 gusting 14 23.3
2014-Apr-16 11:42 040 11 gusting 13 23.3
2014-Apr-16 11:36 040 12 gusting 13 23.2
2014-Apr-16 11:30 030 12 gusting 14 23.2
2014-Apr-16 11:24 030 12 gusting 13 23.3
2014-Apr-16 11:18 030 12 gusting 13 23.4
2014-Apr-16 11:12 030 11 gusting 13 23.6
2014-Apr-16 11:06 030 11 gusting 13 23.7
2014-Apr-16 11:00 030 10 gusting 12 23.7
2014-Apr-16 10:54 020 9 gusting 11 23.7
2014-Apr-16 10:48 020 9 gusting 10 23.9
2014-Apr-16 10:42 030 8 gusting 9 24.1
2014-Apr-16 10:36 030 8 gusting 9 24.3
2014-Apr-16 10:30 020 8 gusting 9 24.4
2014-Apr-16 10:24 010 7 gusting 9 24.6
2014-Apr-16 10:18 010 8 gusting 10 24.7
2014-Apr-16 10:12 010 8 gusting 10 24.7
2014-Apr-16 10:06 360 10 gusting 12 24.7
2014-Apr-16 10:00 360 11 gusting 13 24.8
2014-Apr-16 09:54 360 11 gusting 13 24.7
2014-Apr-16 09:48 360 10 gusting 12 24.8
2014-Apr-16 09:42 360 11 gusting 12 24.8
2014-Apr-16 09:36 340 10 gusting 12 24.8
2014-Apr-16 09:30 350 11 gusting 14 24.9
2014-Apr-16 09:24 350 11 gusting 13 24.9
2014-Apr-16 09:18 350 11 gusting 12 24.9
2014-Apr-16 09:12 350 12 gusting 14 24.9
2014-Apr-16 09:06 340 12 gusting 14 25.0
2014-Apr-16 09:00 340 12 gusting 13 25.0
2014-Apr-16 08:54 350 12 gusting 14 25.1
2014-Apr-16 08:48 350 12 gusting 13 25.0
2014-Apr-16 07:54 280 7 gusting 8 25.6
2014-Apr-16 07:48 280 7 gusting 8 25.7
2014-Apr-16 06:54 270 5 gusting 7 25.7
2014-Apr-16 06:48 270 6 gusting 7 25.7
2014-Apr-16 06:42 280 6 gusting 7 25.6
2014-Apr-16 06:36 280 6 gusting 7 25.7
2014-Apr-16 06:30 280 6 gusting 8 25.6
2014-Apr-16 06:24 280 7 gusting 8 25.7
2014-Apr-16 06:18 270 8 gusting 9 25.8
2014-Apr-16 06:12 270 7 gusting 8 25.8
2014-Apr-16 06:06 280 7 gusting 9 25.8
2014-Apr-16 06:00 290 8 gusting 8 25.8
2014-Apr-16 05:54 300 7 gusting 8 25.8
2014-Apr-16 05:48 300 7 gusting 8 25.8
2014-Apr-16 03:54 290 6 gusting 8 26.0
2014-Apr-16 03:48 290 6 gusting 7 26.0
2014-Apr-16 02:54 280 4 gusting 5 26.2
2014-Apr-16 02:48 280 4 gusting 5 26.2
2014-Apr-16 02:42 290 4 gusting 5 26.2
2014-Apr-16 02:36 290 4 gusting 5 26.2
2014-Apr-16 02:30 290 4 gusting 5 26.1
2014-Apr-16 02:24 290 4 gusting 5 26.1
2014-Apr-16 02:18 290 4 gusting 5 26.1
2014-Apr-16 02:12 300 4 gusting 6 26.2
2014-Apr-16 02:06 310 5 gusting 6 26.3
2014-Apr-16 02:00 310 5 gusting 6 26.3
2014-Apr-16 01:54 310 6 gusting 8 26.3
2014-Apr-16 01:48 300 6 gusting 7 26.3
2014-Apr-16 00:54 310 7 gusting 8 26.3
2014-Apr-16 00:48 300 7 gusting 8 26.4
2014-Apr-16 00:42 300 6 gusting 7 26.3
2014-Apr-16 00:36 300 6 gusting 7 26.4
2014-Apr-16 00:30 300 6 gusting 8 26.3
2014-Apr-16 00:24 310 7 gusting 9 26.4
2014-Apr-16 00:18 310 8 gusting 10 26.4
2014-Apr-16 00:12 310 8 gusting 9 26.4
2014-Apr-16 00:06 310 7 gusting 8 26.4
2014-Apr-16 00:00 310 8 gusting 9 26.4
2014-Apr-15 22:54 290 10 gusting 12 26.7
2014-Apr-15 22:48 290 10 gusting 11 26.7
2014-Apr-15 21:54 290 8 gusting 10 26.8
2014-Apr-15 21:48 290 8 gusting 9 27.0
2014-Apr-15 21:42 280 7 gusting 9 27.1
2014-Apr-15 21:36 270 6 gusting 8 27.1
2014-Apr-15 21:30 260 6 gusting 7 27.0
2014-Apr-15 21:24 250 6 gusting 7 26.9
2014-Apr-15 21:18 240 6 gusting 7 26.9
2014-Apr-15 21:12 230 6 gusting 7 26.9
2014-Apr-15 21:06 230 6 gusting 7 26.8
2014-Apr-15 21:00 240 6 gusting 7 26.8
2014-Apr-15 20:54 230 7 gusting 8 26.8
2014-Apr-15 20:48 230 8 gusting 9 26.8
2014-Apr-15 19:54 210 10 gusting 12 26.7
2014-Apr-15 19:48 210 10 gusting 12 26.7
2014-Apr-15 18:54 220 13 gusting 15 26.7
2014-Apr-15 18:48 220 13 gusting 15 26.7
2014-Apr-15 17:54 200 10 gusting 12 26.8
2014-Apr-15 17:48 200 11 gusting 13 26.7
2014-Apr-15 16:54 190 13 gusting 14 26.6
2014-Apr-15 16:48 180 13 gusting 15 26.7
2014-Apr-15 16:42 180 14 gusting 16 26.7
2014-Apr-15 16:36 180 13 gusting 15 26.7
2014-Apr-15 16:30 180 12 gusting 15 26.6
2014-Apr-15 16:24 180 12 gusting 15 26.6
2014-Apr-15 16:18 190 13 gusting 15 26.6
2014-Apr-15 16:12 180 12 gusting 15 26.7
2014-Apr-15 16:06 180 12 gusting 14 26.7
2014-Apr-15 16:00 180 12 gusting 14 26.7
2014-Apr-15 15:54 180 12 gusting 14 26.7
2014-Apr-15 15:48 180 13 gusting 14 26.6
2014-Apr-15 15:42 180 13 gusting 16 26.6
2014-Apr-15 15:36 180 13 gusting 17 26.6
2014-Apr-15 15:30 180 13 gusting 15 26.6
2014-Apr-15 15:24 180 14 gusting 17 26.6
2014-Apr-15 15:18 180 14 gusting 16 26.6
2014-Apr-15 15:12 180 14 gusting 17 26.6
2014-Apr-15 15:06 180 14 gusting 16 26.6
2014-Apr-15 15:00 180 14 gusting 16 26.6
2014-Apr-15 14:54 180 13 gusting 15 26.6
2014-Apr-15 14:48 180 13 gusting 15 26.5
2014-Apr-15 14:42 180 14 gusting 16 26.5
2014-Apr-15 14:36 180 13 gusting 14 26.5
2014-Apr-15 14:30 180 13 gusting 15 26.5
2014-Apr-15 14:24 180 12 gusting 15 26.5
2014-Apr-15 14:18 180 13 gusting 15 26.5
2014-Apr-15 14:12 180 13 gusting 15 26.5
2014-Apr-15 14:06 180 13 gusting 15 26.5
2014-Apr-15 14:00 170 13 gusting 15 26.5
2014-Apr-15 13:54 180 14 gusting 16 26.5
2014-Apr-15 13:48 180 14 gusting 15 26.5
2014-Apr-15 13:42 180 14 gusting 17 26.5
2014-Apr-15 13:36 180 14 gusting 17 26.4
2014-Apr-15 13:30 180 13 gusting 16 26.4
2014-Apr-15 13:24 180 13 gusting 15 26.4
2014-Apr-15 13:18 180 13 gusting 16 26.4
2014-Apr-15 13:12 180 13 gusting 15 26.4
2014-Apr-15 13:06 180 15 gusting 18 26.4
2014-Apr-15 13:00 180 15 gusting 18 26.4
2014-Apr-15 12:54 180 14 gusting 17 26.4
2014-Apr-15 12:48 170 14 gusting 17 26.4
2014-Apr-15 11:54 160 14 gusting 16 26.3
2014-Apr-15 11:48 160 13 gusting 14 26.3
2014-Apr-15 10:54 160 11 gusting 13 26.1
2014-Apr-15 10:48 160 12 gusting 14 26.2
2014-Apr-15 09:54 160 10 gusting 12 26.1
2014-Apr-15 09:48 160 11 gusting 13 26.1
2014-Apr-15 08:54 150 12 gusting 14 26.1
2014-Apr-15 08:48 150 12 gusting 14 26.1
2014-Apr-15 08:42 150 11 gusting 14 26.1
2014-Apr-15 08:36 150 11 gusting 14 26.1
2014-Apr-15 08:30 140 10 gusting 12 26.1
2014-Apr-15 08:24 150 11 gusting 12 26.1
2014-Apr-15 08:18 150 11 gusting 13 26.1
2014-Apr-15 08:12 150 11 gusting 13 26.1
2014-Apr-15 08:06 150 11 gusting 12 26.1
2014-Apr-15 08:00 150 12 gusting 13 26.1
2014-Apr-15 07:54 150 12 gusting 13 26.1
2014-Apr-15 07:48 150 11 gusting 13 26.1
2014-Apr-15 07:42 160 12 gusting 14 26.1
2014-Apr-15 07:36 150 12 gusting 14 26.1
2014-Apr-15 07:30 150 11 gusting 14 26.1
2014-Apr-15 07:24 150 12 gusting 16 26.1
2014-Apr-15 07:18 140 12 gusting 14 26.1
2014-Apr-15 07:12 140 12 gusting 14 26.1
2014-Apr-15 07:06 140 13 gusting 14 26.1
2014-Apr-15 07:00 140 13 gusting 15 26.1
2014-Apr-15 06:54 150 12 gusting 15 26.1
2014-Apr-15 06:48 140 13 gusting 15 26.1
2014-Apr-15 06:42 140 13 gusting 14 26.0
2014-Apr-15 06:36 140 12 gusting 15 26.1
2014-Apr-15 06:30 150 13 gusting 15 26.0
2014-Apr-15 06:24 150 13 gusting 15 26.1
2014-Apr-15 06:18 150 13 gusting 16 26.1
2014-Apr-15 06:12 150 13 gusting 15 26.1
2014-Apr-15 06:06 150 14 gusting 17 26.1
2014-Apr-15 06:00 150 14 gusting 16 26.1
2014-Apr-15 05:54 140 14 gusting 16 26.1
2014-Apr-15 05:48 140 12 gusting 15 26.1
2014-Apr-15 05:30 140 15 gusting 16 26.1
2014-Apr-15 05:24 140 14 gusting 17 26.2
2014-Apr-15 05:18 140 15 gusting 17 26.2
2014-Apr-15 05:12 140 13 gusting 16 26.2
2014-Apr-15 05:06 140 12 gusting 15 26.2
2014-Apr-15 05:00 130 13 gusting 16 26.2
2014-Apr-15 04:54 140 13 gusting 16 26.3
2014-Apr-15 04:48 140 14 gusting 16 26.3
2014-Apr-15 03:54 130 15 gusting 17 26.4
2014-Apr-15 03:48 130 14 gusting 17 26.4
2014-Apr-15 03:42 130 13 gusting 16 26.4
2014-Apr-15 03:36 130 13 gusting 15 26.4
2014-Apr-15 03:30 130 14 gusting 16 26.4
2014-Apr-15 03:24 130 14 gusting 16 26.4
2014-Apr-15 03:18 130 13 gusting 16 26.4
2014-Apr-15 03:12 130 13 gusting 16 26.4
2014-Apr-15 03:06 130 13 gusting 16 26.5
2014-Apr-15 03:00 130 13 gusting 16 26.4
2014-Apr-15 02:54 130 14 gusting 16 26.4
2014-Apr-15 02:48 130 13 gusting 15 26.4
2014-Apr-15 01:54 140 11 gusting 13 26.5
2014-Apr-15 01:48 140 12 gusting 14 26.4
2014-Apr-15 00:54 140 12 gusting 14 26.4
2014-Apr-15 00:48 140 12 gusting 15 26.4
2014-Apr-14 23:30 160 9 gusting 11 26.4
2014-Apr-14 23:24 160 9 gusting 11 26.5
2014-Apr-14 23:18 170 9 gusting 11 26.5
2014-Apr-14 23:12 170 8 gusting 10 26.6
2014-Apr-14 23:06 170 8 gusting 11 26.6
2014-Apr-14 23:00 160 8 gusting 10 26.6
2014-Apr-14 22:54 160 8 gusting 9 26.6
2014-Apr-14 22:48 160 8 gusting 9 26.6
2014-Apr-14 21:54 160 9 gusting 10 26.7
2014-Apr-14 21:48 160 9 gusting 10 26.7
2014-Apr-14 21:42 160 9 gusting 10 26.6
2014-Apr-14 21:36 170 8 gusting 10 26.5
2014-Apr-14 21:30 170 9 gusting 10 26.5
2014-Apr-14 21:24 160 9 gusting 11 26.5
2014-Apr-14 21:18 160 10 gusting 12 26.6
2014-Apr-14 21:12 170 10 gusting 11 26.6
2014-Apr-14 21:06 160 10 gusting 11 26.7
2014-Apr-14 21:00 160 10 gusting 11 26.6
2014-Apr-14 20:54 160 11 gusting 13 26.6
2014-Apr-14 20:48 160 10 gusting 11 26.6
2014-Apr-14 19:54 170 9 gusting 10 26.5
2014-Apr-14 19:48 170 9 gusting 11 26.5
2014-Apr-14 18:54 150 7 gusting 9 26.5
2014-Apr-14 18:48 160 7 gusting 9 26.4
2014-Apr-14 18:42 160 7 gusting 8 26.4
2014-Apr-14 18:36 150 7 gusting 8 26.4
2014-Apr-14 18:30 160 7 gusting 9 26.3
2014-Apr-14 18:24 160 7 gusting 8 26.4
2014-Apr-14 18:18 160 7 gusting 9 26.4
2014-Apr-14 18:12 150 8 gusting 9 26.4
2014-Apr-14 18:06 160 8 gusting 9 26.4
2014-Apr-14 18:00 150 8 gusting 10 26.3
2014-Apr-14 17:54 150 8 gusting 10 26.3
2014-Apr-14 17:48 150 9 gusting 11 26.3
2014-Apr-14 16:54 160 7 gusting 8 26.1
2014-Apr-14 16:48 160 7 gusting 8 26.1